sensor_id;sensor_type;location;lat;lon;timestamp;pressure;altitude;pressure_sealevel;temperature;humidity
56270;BME280;42176;43.240;27.880;2023-05-10T00:01:04;100758.16;;;5.67;100.00
56270;BME280;42176;43.240;27.880;2023-05-10T00:03:29;100768.75;;;5.73;100.00
56270;BME280;42176;43.240;27.880;2023-05-10T00:05:54;100765.59;;;6.23;100.00
56270;BME280;42176;43.240;27.880;2023-05-10T00:08:20;100762.81;;;6.00;100.00
56270;BME280;42176;43.240;27.880;2023-05-10T00:10:45;100768.91;;;5.98;100.00
56270;BME280;42176;43.240;27.880;2023-05-10T00:13:11;100766.44;;;6.15;100.00
56270;BME280;42176;43.240;27.880;2023-05-10T00:15:36;100753.31;;;6.25;100.00
56270;BME280;42176;43.240;27.880;2023-05-10T00:18:02;100759.97;;;5.74;100.00
56270;BME280;42176;43.240;27.880;2023-05-10T00:20:27;100759.22;;;5.90;100.00
56270;BME280;42176;43.240;27.880;2023-05-10T00:22:53;100760.25;;;6.09;100.00
56270;BME280;42176;43.240;27.880;2023-05-10T00:25:18;100761.25;;;6.27;100.00
56270;BME280;42176;43.240;27.880;2023-05-10T00:27:43;100752.59;;;6.58;100.00
56270;BME280;42176;43.240;27.880;2023-05-10T00:30:09;100749.47;;;5.80;100.00
56270;BME280;42176;43.240;27.880;2023-05-10T00:32:36;100752.75;;;5.51;100.00
56270;BME280;42176;43.240;27.880;2023-05-10T00:35:01;100759.06;;;5.73;100.00
56270;BME280;42176;43.240;27.880;2023-05-10T00:37:27;100752.31;;;6.02;100.00
56270;BME280;42176;43.240;27.880;2023-05-10T00:39:52;100756.81;;;6.21;100.00
56270;BME280;42176;43.240;27.880;2023-05-10T00:42:18;100750.78;;;6.44;100.00
56270;BME280;42176;43.240;27.880;2023-05-10T00:44:43;100748.50;;;5.64;100.00
56270;BME280;42176;43.240;27.880;2023-05-10T00:47:09;100743.25;;;5.64;100.00
56270;BME280;42176;43.240;27.880;2023-05-10T00:49:36;100756.59;;;5.93;100.00
56270;BME280;42176;43.240;27.880;2023-05-10T00:52:01;100751.53;;;6.18;100.00
56270;BME280;42176;43.240;27.880;2023-05-10T00:54:28;100757.41;;;5.82;100.00
56270;BME280;42176;43.240;27.880;2023-05-10T00:56:53;100744.81;;;5.42;100.00
56270;BME280;42176;43.240;27.880;2023-05-10T00:59:19;100749.41;;;5.68;100.00
56270;BME280;42176;43.240;27.880;2023-05-10T01:01:46;100757.47;;;5.95;100.00
56270;BME280;42176;43.240;27.880;2023-05-10T01:04:12;100751.56;;;6.24;100.00
56270;BME280;42176;43.240;27.880;2023-05-10T01:06:41;100745.31;;;6.10;100.00
56270;BME280;42176;43.240;27.880;2023-05-10T01:09:07;100745.72;;;5.44;100.00
56270;BME280;42176;43.240;27.880;2023-05-10T01:11:36;100748.56;;;5.73;100.00
56270;BME280;42176;43.240;27.880;2023-05-10T01:14:03;100754.88;;;5.99;100.00
56270;BME280;42176;43.240;27.880;2023-05-10T01:16:34;100742.81;;;6.29;100.00
56270;BME280;42176;43.240;27.880;2023-05-10T01:19:01;100740.56;;;5.62;100.00
56270;BME280;42176;43.240;27.880;2023-05-10T01:25:04;100747.75;;;5.82;100.00
56270;BME280;42176;43.240;27.880;2023-05-10T01:27:24;100754.19;;;6.21;100.00
56270;BME280;42176;43.240;27.880;2023-05-10T01:33:15;100749.19;;;5.46;100.00
56270;BME280;42176;43.240;27.880;2023-05-10T01:35:50;100749.44;;;5.74;100.00
56270;BME280;42176;43.240;27.880;2023-05-10T01:38:20;100754.84;;;5.95;100.00
56270;BME280;42176;43.240;27.880;2023-05-10T01:43:22;100744.06;;;5.61;100.00
56270;BME280;42176;43.240;27.880;2023-05-10T01:46:01;100745.63;;;5.38;100.00
56270;BME280;42176;43.240;27.880;2023-05-10T01:48:29;100747.59;;;5.63;100.00
56270;BME280;42176;43.240;27.880;2023-05-10T01:50:57;100752.19;;;5.91;100.00
56270;BME280;42176;43.240;27.880;2023-05-10T01:53:23;100744.47;;;6.11;100.00
56270;BME280;42176;43.240;27.880;2023-05-10T01:55:51;100740.75;;;5.84;100.00
56270;BME280;42176;43.240;27.880;2023-05-10T01:58:30;100740.28;;;5.25;100.00
56270;BME280;42176;43.240;27.880;2023-05-10T02:00:58;100742.31;;;5.57;100.00
56270;BME280;42176;43.240;27.880;2023-05-10T02:03:27;100751.22;;;5.78;100.00
56270;BME280;42176;43.240;27.880;2023-05-10T02:05:54;100746.16;;;6.00;100.00
56270;BME280;42176;43.240;27.880;2023-05-10T02:08:21;100734.66;;;5.94;100.00
56270;BME280;42176;43.240;27.880;2023-05-10T02:10:50;100734.91;;;5.16;100.00
56270;BME280;42176;43.240;27.880;2023-05-10T02:13:17;100749.19;;;5.43;100.00
56270;BME280;42176;43.240;27.880;2023-05-10T02:15:43;100748.59;;;5.75;100.00
56270;BME280;42176;43.240;27.880;2023-05-10T02:18:12;100749.59;;;5.95;100.00
56270;BME280;42176;43.240;27.880;2023-05-10T02:20:39;100726.78;;;5.91;100.00
56270;BME280;42176;43.240;27.880;2023-05-10T02:23:05;100743.84;;;5.32;100.00
56270;BME280;42176;43.240;27.880;2023-05-10T02:25:32;100744.75;;;5.36;100.00
56270;BME280;42176;43.240;27.880;2023-05-10T02:28:00;100744.13;;;5.68;100.00
56270;BME280;42176;43.240;27.880;2023-05-10T02:30:27;100748.66;;;5.89;100.00
56270;BME280;42176;43.240;27.880;2023-05-10T02:32:54;100737.31;;;5.94;100.00
56270;BME280;42176;43.240;27.880;2023-05-10T02:35:23;100741.03;;;5.15;100.00
56270;BME280;42176;43.240;27.880;2023-05-10T02:37:49;100736.78;;;5.26;100.00
56270;BME280;42176;43.240;27.880;2023-05-10T02:40:16;100749.31;;;5.55;100.00
56270;BME280;42176;43.240;27.880;2023-05-10T02:42:44;100750.50;;;5.98;100.00
56270;BME280;42176;43.240;27.880;2023-05-10T02:45:13;100732.38;;;5.27;100.00
56270;BME280;42176;43.240;27.880;2023-05-10T02:47:40;100740.91;;;5.02;100.00
56270;BME280;42176;43.240;27.880;2023-05-10T02:50:06;100750.97;;;5.44;100.00
56270;BME280;42176;43.240;27.880;2023-05-10T02:52:51;100753.88;;;5.79;100.00
56270;BME280;42176;43.240;27.880;2023-05-10T02:55:22;100750.22;;;5.60;100.00
56270;BME280;42176;43.240;27.880;2023-05-10T02:57:58;100750.69;;;5.16;100.00
56270;BME280;42176;43.240;27.880;2023-05-10T03:00:24;100753.66;;;5.52;100.00
56270;BME280;42176;43.240;27.880;2023-05-10T03:02:50;100760.00;;;5.80;100.00
56270;BME280;42176;43.240;27.880;2023-05-10T03:05:16;100751.50;;;6.12;100.00
56270;BME280;42176;43.240;27.880;2023-05-10T03:07:41;100752.75;;;5.51;100.00
56270;BME280;42176;43.240;27.880;2023-05-10T03:10:07;100751.94;;;5.55;100.00
56270;BME280;42176;43.240;27.880;2023-05-10T03:17:55;100757.75;;;6.34;100.00
56270;BME280;42176;43.240;27.880;2023-05-10T03:20:26;100752.88;;;5.60;100.00
56270;BME280;42176;43.240;27.880;2023-05-10T03:23:04;100765.25;;;5.74;100.00
56270;BME280;42176;43.240;27.880;2023-05-10T03:25:31;100756.72;;;6.06;100.00
56270;BME280;42176;43.240;27.880;2023-05-10T03:27:57;100767.53;;;6.59;100.00
56270;BME280;42176;43.240;27.880;2023-05-10T03:30:24;100751.31;;;5.93;100.00
56270;BME280;42176;43.240;27.880;2023-05-10T03:32:50;100753.72;;;5.62;100.00
56270;BME280;42176;43.240;27.880;2023-05-10T03:35:16;100762.03;;;6.15;100.00
56270;BME280;42176;43.240;27.880;2023-05-10T03:37:41;100761.53;;;7.03;100.00
56270;BME280;42176;43.240;27.880;2023-05-10T03:40:07;100753.72;;;7.77;100.00
56270;BME280;42176;43.240;27.880;2023-05-10T03:42:33;100742.13;;;8.45;100.00
56270;BME280;42176;43.240;27.880;2023-05-10T03:44:58;100734.81;;;9.06;100.00
56270;BME280;42176;43.240;27.880;2023-05-10T03:47:24;100747.66;;;9.64;100.00
56270;BME280;42176;43.240;27.880;2023-05-10T03:49:49;100746.25;;;10.19;100.00
56270;BME280;42176;43.240;27.880;2023-05-10T03:52:15;100737.75;;;10.67;100.00
56270;BME280;42176;43.240;27.880;2023-05-10T03:54:40;100746.19;;;10.22;99.00
56270;BME280;42176;43.240;27.880;2023-05-10T03:57:06;100746.03;;;9.44;100.00
56270;BME280;42176;43.240;27.880;2023-05-10T03:59:31;100750.31;;;10.53;100.00
56270;BME280;42176;43.240;27.880;2023-05-10T04:01:56;100741.34;;;11.29;97.25
56270;BME280;42176;43.240;27.880;2023-05-10T04:04:22;100746.25;;;12.07;91.47
56270;BME280;42176;43.240;27.880;2023-05-10T04:06:48;100737.72;;;12.80;86.07
56270;BME280;42176;43.240;27.880;2023-05-10T04:09:14;100735.75;;;13.29;81.50
56270;BME280;42176;43.240;27.880;2023-05-10T04:11:40;100742.19;;;13.93;76.98
56270;BME280;42176;43.240;27.880;2023-05-10T04:14:05;100745.69;;;14.28;73.18
56270;BME280;42176;43.240;27.880;2023-05-10T04:16:31;100745.31;;;14.73;69.70
56270;BME280;42176;43.240;27.880;2023-05-10T04:18:56;100745.22;;;15.06;66.51
56270;BME280;42176;43.240;27.880;2023-05-10T04:21:22;100744.34;;;15.61;63.59
56270;BME280;42176;43.240;27.880;2023-05-10T04:23:48;100750.16;;;16.03;61.17
56270;BME280;42176;43.240;27.880;2023-05-10T04:26:13;100732.66;;;16.43;58.66
56270;BME280;42176;43.240;27.880;2023-05-10T04:28:38;100739.69;;;16.95;56.53
56270;BME280;42176;43.240;27.880;2023-05-10T04:31:09;100728.78;;;17.22;54.72
56270;BME280;42176;43.240;27.880;2023-05-10T04:33:35;100733.91;;;17.71;53.40
56270;BME280;42176;43.240;27.880;2023-05-10T04:36:00;100729.34;;;18.16;51.70
56270;BME280;42176;43.240;27.880;2023-05-10T04:38:26;100720.38;;;18.17;51.18
56270;BME280;42176;43.240;27.880;2023-05-10T04:40:52;100736.84;;;18.49;50.18
56270;BME280;42176;43.240;27.880;2023-05-10T04:43:18;100735.41;;;19.18;48.87
56270;BME280;42176;43.240;27.880;2023-05-10T04:45:43;100733.66;;;19.36;47.71
56270;BME280;42176;43.240;27.880;2023-05-10T04:48:09;100738.41;;;20.03;46.62
56270;BME280;42176;43.240;27.880;2023-05-10T04:50:37;100734.75;;;19.86;46.14
56270;BME280;42176;43.240;27.880;2023-05-10T04:53:02;100725.53;;;20.43;45.01
56270;BME280;42176;43.240;27.880;2023-05-10T04:55:28;100729.97;;;21.10;43.87
56270;BME280;42176;43.240;27.880;2023-05-10T04:57:53;100731.00;;;21.39;42.72
56270;BME280;42176;43.240;27.880;2023-05-10T05:00:22;100725.81;;;21.83;42.00
56270;BME280;42176;43.240;27.880;2023-05-10T05:02:47;100730.56;;;22.53;40.65
56270;BME280;42176;43.240;27.880;2023-05-10T05:05:13;100726.91;;;22.69;40.24
56270;BME280;42176;43.240;27.880;2023-05-10T05:07:38;100731.31;;;22.26;39.89
56270;BME280;42176;43.240;27.880;2023-05-10T05:10:08;100725.53;;;22.61;40.45
56270;BME280;42176;43.240;27.880;2023-05-10T05:12:34;100737.94;;;21.59;41.38
56270;BME280;42176;43.240;27.880;2023-05-10T05:15:00;100728.41;;;20.90;42.27
56270;BME280;42176;43.240;27.880;2023-05-10T05:17:26;100733.81;;;20.90;42.54
56270;BME280;42176;43.240;27.880;2023-05-10T05:19:51;100731.34;;;20.18;44.34
56270;BME280;42176;43.240;27.880;2023-05-10T05:22:17;100738.75;;;20.81;41.70
56270;BME280;42176;43.240;27.880;2023-05-10T05:24:44;100739.97;;;21.24;41.25
56270;BME280;42176;43.240;27.880;2023-05-10T05:27:10;100729.94;;;21.58;40.93
56270;BME280;42176;43.240;27.880;2023-05-10T05:29:35;100743.72;;;21.37;41.00
56270;BME280;42176;43.240;27.880;2023-05-10T05:32:01;100755.13;;;19.55;44.21
56270;BME280;42176;43.240;27.880;2023-05-10T05:34:26;100751.19;;;19.80;44.60
56270;BME280;42176;43.240;27.880;2023-05-10T05:36:52;100736.97;;;20.31;43.76
56270;BME280;42176;43.240;27.880;2023-05-10T05:39:17;100745.34;;;18.78;46.48
56270;BME280;42176;43.240;27.880;2023-05-10T05:41:43;100746.88;;;17.81;49.59
56270;BME280;42176;43.240;27.880;2023-05-10T05:44:08;100749.16;;;16.31;55.01
56270;BME280;42176;43.240;27.880;2023-05-10T05:46:34;100743.66;;;15.83;59.11
56270;BME280;42176;43.240;27.880;2023-05-10T05:49:00;100750.00;;;15.79;60.43
56270;BME280;42176;43.240;27.880;2023-05-10T05:51:25;100741.03;;;16.57;57.48
56270;BME280;42176;43.240;27.880;2023-05-10T05:53:50;100736.72;;;16.29;57.50
56270;BME280;42176;43.240;27.880;2023-05-10T05:56:16;100745.56;;;16.32;57.95
56270;BME280;42176;43.240;27.880;2023-05-10T05:58:49;100738.16;;;17.76;54.49
56270;BME280;42176;43.240;27.880;2023-05-10T06:01:14;100731.41;;;18.69;49.91
56270;BME280;42176;43.240;27.880;2023-05-10T06:03:40;100736.84;;;19.44;47.88
56270;BME280;42176;43.240;27.880;2023-05-10T06:06:05;100742.91;;;19.11;45.46
56270;BME280;42176;43.240;27.880;2023-05-10T06:08:31;100744.13;;;18.05;47.83
56270;BME280;42176;43.240;27.880;2023-05-10T06:10:56;100739.81;;;18.22;46.64
56270;BME280;42176;43.240;27.880;2023-05-10T06:13:21;100754.84;;;19.42;45.78
56270;BME280;42176;43.240;27.880;2023-05-10T06:15:47;100741.44;;;21.45;40.99
56270;BME280;42176;43.240;27.880;2023-05-10T06:18:12;100742.94;;;22.57;38.80
56270;BME280;42176;43.240;27.880;2023-05-10T06:20:38;100735.91;;;22.10;38.82
56270;BME280;42176;43.240;27.880;2023-05-10T06:23:03;100756.13;;;22.02;37.25
56270;BME280;42176;43.240;27.880;2023-05-10T06:25:29;100757.47;;;21.33;37.70
56270;BME280;42176;43.240;27.880;2023-05-10T06:27:54;100743.53;;;19.36;42.56
56270;BME280;42176;43.240;27.880;2023-05-10T06:30:23;100741.59;;;22.19;37.44
56270;BME280;42176;43.240;27.880;2023-05-10T06:32:52;100748.84;;;20.09;39.24
56270;BME280;42176;43.240;27.880;2023-05-10T06:35:18;100742.00;;;21.20;38.07
56270;BME280;42176;43.240;27.880;2023-05-10T06:37:44;100763.03;;;21.13;38.04
56270;BME280;42176;43.240;27.880;2023-05-10T06:40:09;100746.75;;;20.49;40.17
56270;BME280;42176;43.240;27.880;2023-05-10T06:42:35;100742.78;;;22.30;37.82
56270;BME280;42176;43.240;27.880;2023-05-10T06:45:00;100742.50;;;22.92;36.82
56270;BME280;42176;43.240;27.880;2023-05-10T06:47:26;100753.34;;;22.49;36.11
56270;BME280;42176;43.240;27.880;2023-05-10T06:49:51;100771.88;;;19.43;40.98
56270;BME280;42176;43.240;27.880;2023-05-10T06:52:17;100759.53;;;19.00;41.64
56270;BME280;42176;43.240;27.880;2023-05-10T06:54:42;100768.94;;;18.71;42.46
56270;BME280;42176;43.240;27.880;2023-05-10T06:57:08;100762.53;;;18.94;42.86
56270;BME280;42176;43.240;27.880;2023-05-10T06:59:36;100759.53;;;19.00;40.38
56270;BME280;42176;43.240;27.880;2023-05-10T07:02:01;100757.75;;;18.61;42.40
56270;BME280;42176;43.240;27.880;2023-05-10T07:04:27;100750.81;;;18.36;43.28
56270;BME280;42176;43.240;27.880;2023-05-10T07:06:52;100761.66;;;16.79;45.63
56270;BME280;42176;43.240;27.880;2023-05-10T07:09:18;100764.16;;;18.38;42.39
56270;BME280;42176;43.240;27.880;2023-05-10T07:11:43;100750.31;;;18.47;42.88
56270;BME280;42176;43.240;27.880;2023-05-10T07:14:09;100748.75;;;17.79;43.91
56270;BME280;42176;43.240;27.880;2023-05-10T07:16:34;100756.94;;;16.86;45.94
56270;BME280;42176;43.240;27.880;2023-05-10T07:19:00;100755.16;;;19.17;41.03
56270;BME280;42176;43.240;27.880;2023-05-10T07:21:25;100763.81;;;19.05;40.75
56270;BME280;42176;43.240;27.880;2023-05-10T07:23:54;100752.66;;;18.95;40.83
56270;BME280;42176;43.240;27.880;2023-05-10T07:26:19;100754.75;;;17.64;42.99
56270;BME280;42176;43.240;27.880;2023-05-10T07:28:46;100757.06;;;18.56;42.51
56270;BME280;42176;43.240;27.880;2023-05-10T07:31:12;100761.56;;;19.33;41.85
56270;BME280;42176;43.240;27.880;2023-05-10T07:33:37;100771.88;;;18.04;42.62
56270;BME280;42176;43.240;27.880;2023-05-10T07:36:03;100786.66;;;18.35;43.09
56270;BME280;42176;43.240;27.880;2023-05-10T07:38:28;100793.41;;;16.88;45.61
56270;BME280;42176;43.240;27.880;2023-05-10T07:40:53;100766.19;;;17.01;46.57
56270;BME280;42176;43.240;27.880;2023-05-10T07:43:19;100768.41;;;16.66;48.96
56270;BME280;42176;43.240;27.880;2023-05-10T07:45:44;100773.97;;;17.31;48.93
56270;BME280;42176;43.240;27.880;2023-05-10T07:48:10;100772.75;;;15.37;53.89
56270;BME280;42176;43.240;27.880;2023-05-10T07:50:35;100783.03;;;15.49;56.86
56270;BME280;42176;43.240;27.880;2023-05-10T07:53:01;100785.63;;;16.33;54.44
56270;BME280;42176;43.240;27.880;2023-05-10T07:55:26;100773.25;;;18.54;49.21
56270;BME280;42176;43.240;27.880;2023-05-10T07:57:51;100768.91;;;17.45;51.07
56270;BME280;42176;43.240;27.880;2023-05-10T08:00:18;100781.34;;;17.91;51.36
56270;BME280;42176;43.240;27.880;2023-05-10T08:02:44;100768.63;;;16.83;54.50
56270;BME280;42176;43.240;27.880;2023-05-10T08:05:10;100782.09;;;16.06;57.92
56270;BME280;42176;43.240;27.880;2023-05-10T08:07:35;100773.63;;;16.93;55.93
56270;BME280;42176;43.240;27.880;2023-05-10T08:10:02;100758.84;;;16.58;54.12
56270;BME280;42176;43.240;27.880;2023-05-10T08:12:27;100787.13;;;15.04;60.33
56270;BME280;42176;43.240;27.880;2023-05-10T08:14:53;100778.66;;;14.90;62.28
56270;BME280;42176;43.240;27.880;2023-05-10T08:17:18;100779.25;;;16.61;58.08
56270;BME280;42176;43.240;27.880;2023-05-10T08:19:44;100776.09;;;18.51;49.61
56270;BME280;42176;43.240;27.880;2023-05-10T08:22:12;100768.72;;;18.15;49.32
56270;BME280;42176;43.240;27.880;2023-05-10T08:24:37;100788.09;;;18.63;47.60
56270;BME280;42176;43.240;27.880;2023-05-10T08:27:07;100789.03;;;17.11;50.58
56270;BME280;42176;43.240;27.880;2023-05-10T08:29:36;100794.88;;;16.73;51.96
56270;BME280;42176;43.240;27.880;2023-05-10T08:32:02;100804.25;;;16.85;49.43
56270;BME280;42176;43.240;27.880;2023-05-10T08:34:30;100790.84;;;18.00;46.96
56270;BME280;42176;43.240;27.880;2023-05-10T08:36:56;100788.91;;;16.41;51.80
56270;BME280;42176;43.240;27.880;2023-05-10T08:39:22;100781.78;;;16.66;51.63
56270;BME280;42176;43.240;27.880;2023-05-10T08:41:51;100788.44;;;17.27;50.06
56270;BME280;42176;43.240;27.880;2023-05-10T08:44:16;100788.41;;;17.93;48.08
56270;BME280;42176;43.240;27.880;2023-05-10T08:46:46;100798.41;;;16.50;51.84
56270;BME280;42176;43.240;27.880;2023-05-10T08:49:13;100794.00;;;15.12;58.81
56270;BME280;42176;43.240;27.880;2023-05-10T08:51:45;100799.91;;;16.07;56.78
56270;BME280;42176;43.240;27.880;2023-05-10T08:54:12;100812.53;;;17.03;55.30
56270;BME280;42176;43.240;27.880;2023-05-10T08:56:38;100802.28;;;15.89;56.37
56270;BME280;42176;43.240;27.880;2023-05-10T08:59:04;100814.63;;;15.36;60.15
56270;BME280;42176;43.240;27.880;2023-05-10T09:01:31;100798.03;;;14.97;62.43
56270;BME280;42176;43.240;27.880;2023-05-10T09:03:57;100795.88;;;15.38;61.89
56270;BME280;42176;43.240;27.880;2023-05-10T09:06:23;100788.25;;;15.81;60.17
56270;BME280;42176;43.240;27.880;2023-05-10T09:08:49;100796.66;;;16.49;56.60
56270;BME280;42176;43.240;27.880;2023-05-10T09:11:16;100795.56;;;15.19;61.99
56270;BME280;42176;43.240;27.880;2023-05-10T09:13:42;100791.22;;;15.45;60.47
56270;BME280;42176;43.240;27.880;2023-05-10T09:16:09;100801.84;;;14.22;66.42
56270;BME280;42176;43.240;27.880;2023-05-10T09:18:34;100778.75;;;14.54;65.37
56270;BME280;42176;43.240;27.880;2023-05-10T09:21:00;100794.13;;;14.45;66.29
56270;BME280;42176;43.240;27.880;2023-05-10T09:23:25;100792.22;;;14.16;67.10
56270;BME280;42176;43.240;27.880;2023-05-10T09:26:07;100798.06;;;13.96;67.78
56270;BME280;42176;43.240;27.880;2023-05-10T09:28:33;100780.09;;;14.37;68.09
56270;BME280;42176;43.240;27.880;2023-05-10T09:30:59;100789.72;;;14.43;67.45
56270;BME280;42176;43.240;27.880;2023-05-10T09:33:25;100791.25;;;14.19;68.21
56270;BME280;42176;43.240;27.880;2023-05-10T09:35:51;100794.75;;;14.21;66.93
56270;BME280;42176;43.240;27.880;2023-05-10T09:38:17;100799.44;;;14.45;67.00
56270;BME280;42176;43.240;27.880;2023-05-10T09:40:51;100782.03;;;14.32;69.05
56270;BME280;42176;43.240;27.880;2023-05-10T09:43:19;100801.78;;;13.89;67.80
56270;BME280;42176;43.240;27.880;2023-05-10T09:45:48;100803.63;;;13.86;67.88
56270;BME280;42176;43.240;27.880;2023-05-10T09:48:14;100802.03;;;14.14;68.15
56270;BME280;42176;43.240;27.880;2023-05-10T09:50:39;100798.47;;;13.79;66.11
56270;BME280;42176;43.240;27.880;2023-05-10T09:53:05;100804.69;;;13.79;67.18
56270;BME280;42176;43.240;27.880;2023-05-10T09:55:40;100805.63;;;13.39;69.59
56270;BME280;42176;43.240;27.880;2023-05-10T09:58:06;100796.03;;;13.32;71.15
56270;BME280;42176;43.240;27.880;2023-05-10T10:00:36;100813.69;;;13.75;70.96
56270;BME280;42176;43.240;27.880;2023-05-10T10:03:03;100789.44;;;14.21;67.92
56270;BME280;42176;43.240;27.880;2023-05-10T10:07:56;100801.00;;;14.20;68.06
56270;BME280;42176;43.240;27.880;2023-05-10T10:10:22;100812.59;;;14.19;67.31
56270;BME280;42176;43.240;27.880;2023-05-10T10:12:48;100806.59;;;13.74;70.04
56270;BME280;42176;43.240;27.880;2023-05-10T10:15:14;100805.94;;;13.64;70.65
56270;BME280;42176;43.240;27.880;2023-05-10T10:17:40;100802.53;;;13.58;72.61
56270;BME280;42176;43.240;27.880;2023-05-10T10:20:07;100808.28;;;13.78;72.48
56270;BME280;42176;43.240;27.880;2023-05-10T10:22:33;100813.69;;;13.75;68.92
56270;BME280;42176;43.240;27.880;2023-05-10T10:24:59;100797.22;;;14.28;68.83
56270;BME280;42176;43.240;27.880;2023-05-10T10:35:58;100793.50;;;13.65;67.74
56270;BME280;42176;43.240;27.880;2023-05-10T10:38:24;100802.19;;;13.34;69.66
56270;BME280;42176;43.240;27.880;2023-05-10T10:41:08;100805.88;;;13.28;72.11
56270;BME280;42176;43.240;27.880;2023-05-10T10:43:34;100803.00;;;13.37;70.16
56270;BME280;42176;43.240;27.880;2023-05-10T10:46:20;100812.69;;;13.42;70.58
56270;BME280;42176;43.240;27.880;2023-05-10T10:49:07;100797.88;;;13.69;68.80
56270;BME280;42176;43.240;27.880;2023-05-10T10:51:37;100806.28;;;13.86;68.37
56270;BME280;42176;43.240;27.880;2023-05-10T10:54:12;100800.06;;;13.51;68.71
56270;BME280;42176;43.240;27.880;2023-05-10T10:56:37;100807.59;;;13.31;70.32
56270;BME280;42176;43.240;27.880;2023-05-10T10:59:03;100807.63;;;13.28;72.13
56270;BME280;42176;43.240;27.880;2023-05-10T11:01:34;100824.09;;;13.06;73.58
56270;BME280;42176;43.240;27.880;2023-05-10T11:06:33;100800.72;;;13.20;73.23
56270;BME280;42176;43.240;27.880;2023-05-10T11:08:59;100797.56;;;13.03;69.75
56270;BME280;42176;43.240;27.880;2023-05-10T11:11:30;100790.13;;;13.17;68.81
56270;BME280;42176;43.240;27.880;2023-05-10T11:14:02;100801.19;;;12.99;68.62
56270;BME280;42176;43.240;27.880;2023-05-10T11:16:28;100794.03;;;13.01;69.03
56270;BME280;42176;43.240;27.880;2023-05-10T11:19:13;100809.25;;;12.94;68.39
56270;BME280;42176;43.240;27.880;2023-05-10T11:24:20;100805.06;;;12.82;72.04
56270;BME280;42176;43.240;27.880;2023-05-10T11:26:46;100801.22;;;12.95;72.41
56270;BME280;42176;43.240;27.880;2023-05-10T11:29:15;100805.22;;;12.76;74.91
56270;BME280;42176;43.240;27.880;2023-05-10T11:31:44;100808.63;;;12.81;74.64
56270;BME280;42176;43.240;27.880;2023-05-10T11:34:27;100804.41;;;12.71;73.28
56270;BME280;42176;43.240;27.880;2023-05-10T11:36:55;100791.50;;;12.94;72.69
56270;BME280;42176;43.240;27.880;2023-05-10T11:39:21;100817.81;;;13.08;71.33
56270;BME280;42176;43.240;27.880;2023-05-10T11:41:50;100804.41;;;13.13;70.78
56270;BME280;42176;43.240;27.880;2023-05-10T11:44:15;100793.53;;;12.83;73.89
56270;BME280;42176;43.240;27.880;2023-05-10T11:46:41;100792.41;;;12.93;75.71
56270;BME280;42176;43.240;27.880;2023-05-10T11:49:07;100809.84;;;12.64;75.34
56270;BME280;42176;43.240;27.880;2023-05-10T11:51:35;100788.16;;;12.41;76.72
56270;BME280;42176;43.240;27.880;2023-05-10T11:54:08;100800.13;;;12.63;75.37
56270;BME280;42176;43.240;27.880;2023-05-10T11:56:34;100785.31;;;12.92;72.86
56270;BME280;42176;43.240;27.880;2023-05-10T11:59:00;100789.38;;;12.70;75.42
56270;BME280;42176;43.240;27.880;2023-05-10T12:01:27;100782.97;;;12.78;77.48
56270;BME280;42176;43.240;27.880;2023-05-10T12:03:55;100788.72;;;13.01;73.36
56270;BME280;42176;43.240;27.880;2023-05-10T12:06:30;100799.03;;;12.74;74.27
56270;BME280;42176;43.240;27.880;2023-05-10T12:08:57;100790.66;;;12.92;74.16
56270;BME280;42176;43.240;27.880;2023-05-10T12:11:27;100810.34;;;12.85;70.44
56270;BME280;42176;43.240;27.880;2023-05-10T12:13:54;100793.22;;;12.53;69.96
56270;BME280;42176;43.240;27.880;2023-05-10T12:16:24;100778.41;;;12.85;70.56
56270;BME280;42176;43.240;27.880;2023-05-10T12:18:52;100791.44;;;12.98;74.69
56270;BME280;42176;43.240;27.880;2023-05-10T12:21:19;100787.81;;;13.00;73.36
56270;BME280;42176;43.240;27.880;2023-05-10T12:23:46;100779.81;;;13.02;73.04
56270;BME280;42176;43.240;27.880;2023-05-10T12:26:12;100775.00;;;12.77;71.91
56270;BME280;42176;43.240;27.880;2023-05-10T12:28:38;100772.66;;;12.61;70.85
56270;BME280;42176;43.240;27.880;2023-05-10T12:31:07;100780.03;;;12.48;72.77
56270;BME280;42176;43.240;27.880;2023-05-10T12:33:40;100750.63;;;12.56;70.31
56270;BME280;42176;43.240;27.880;2023-05-10T12:36:11;100762.66;;;12.76;70.31
56270;BME280;42176;43.240;27.880;2023-05-10T12:38:39;100762.53;;;12.81;68.72
56270;BME280;42176;43.240;27.880;2023-05-10T12:41:06;100764.13;;;12.89;69.14
56270;BME280;42176;43.240;27.880;2023-05-10T12:43:32;100757.50;;;12.67;71.14
56270;BME280;42176;43.240;27.880;2023-05-10T12:45:58;100770.41;;;12.43;72.32
56270;BME280;42176;43.240;27.880;2023-05-10T12:48:29;100750.56;;;12.59;74.15
56270;BME280;42176;43.240;27.880;2023-05-10T12:50:56;100755.94;;;12.56;71.43
56270;BME280;42176;43.240;27.880;2023-05-10T12:53:21;100746.88;;;12.67;72.03
56270;BME280;42176;43.240;27.880;2023-05-10T12:55:47;100745.56;;;12.44;70.53
56270;BME280;42176;43.240;27.880;2023-05-10T12:58:12;100756.31;;;12.38;71.45
56270;BME280;42176;43.240;27.880;2023-05-10T13:00:38;100753.88;;;12.71;69.60
56270;BME280;42176;43.240;27.880;2023-05-10T13:03:04;100750.31;;;12.72;67.30
56270;BME280;42176;43.240;27.880;2023-05-10T13:05:32;100744.38;;;12.59;67.77
56270;BME280;42176;43.240;27.880;2023-05-10T13:07:58;100741.16;;;12.41;70.43
56270;BME280;42176;43.240;27.880;2023-05-10T13:10:23;100736.69;;;12.45;70.28